Time;durP1;ratioP1;P1;durP2;ratioP2;P2;SDS_P1;SDS_P2;PMS_P1;PMS_P2;Temp;Humidity;BMP_temperature;BMP_pressure;BME280_temperature;BME280_humidity;BME280_pressure;Samples;Min_cycle;Max_cycle;Signal;HPM_P1;HPM_P2
2021/04/18 00:01:44;;;;;;;12.77;6.20;;;6.70;99.90;;;;;;5023529;28;20499;-73
2021/04/18 00:04:10;;;;;;;13.00;6.55;;;6.80;99.90;;;;;;5029499;28;20029;-73
2021/04/18 00:06:39;;;;;;;11.68;6.00;;;6.70;99.90;;;;;;5027617;28;20028;-73
2021/04/18 00:09:12;;;;;;;13.90;6.05;;;6.60;99.90;;;;;;5028243;28;20040;-73
2021/04/18 00:11:41;;;;;;;15.30;6.05;;;6.60;99.90;;;;;;5025412;28;20029;-73
2021/04/18 00:14:09;;;;;;;12.40;6.70;;;6.50;99.90;;;;;;5027348;28;20040;-73
2021/04/18 00:16:36;;;;;;;14.68;6.95;;;6.60;99.90;;;;;;5027190;28;20025;-73
2021/04/18 00:19:03;;;;;;;12.65;6.78;;;6.50;99.90;;;;;;5011994;28;20075;-72
2021/04/18 00:21:28;;;;;;;15.30;7.53;;;6.50;99.90;;;;;;5028415;28;20032;-73
2021/04/18 00:23:54;;;;;;;11.85;6.47;;;6.40;99.90;;;;;;5021457;28;20625;-73
2021/04/18 00:26:19;;;;;;;13.63;6.57;;;6.40;99.90;;;;;;5021283;28;20091;-73
2021/04/18 00:28:45;;;;;;;13.00;6.57;;;6.40;99.90;;;;;;5025421;28;20029;-73
2021/04/18 00:31:11;;;;;;;14.77;6.88;;;6.40;99.90;;;;;;5028134;28;20025;-73
2021/04/18 00:33:36;;;;;;;15.35;7.43;;;6.40;99.90;;;;;;5021957;28;20535;-73
2021/04/18 00:36:03;;;;;;;13.30;5.82;;;6.30;99.90;;;;;;5027000;28;20022;-73
2021/04/18 00:38:28;;;;;;;9.55;5.80;;;6.30;99.90;;;;;;5027024;28;20026;-73
2021/04/18 00:40:54;;;;;;;11.63;6.32;;;6.20;99.90;;;;;;5027880;28;20034;-73
2021/04/18 00:43:19;;;;;;;10.10;5.47;;;6.20;99.90;;;;;;5022833;28;20530;-73
2021/04/18 00:45:44;;;;;;;11.05;6.60;;;6.20;99.90;;;;;;5027348;28;20633;-73
2021/04/18 00:48:10;;;;;;;12.48;6.75;;;6.20;99.90;;;;;;5018310;28;20029;-73
2021/04/18 00:50:38;;;;;;;10.85;6.55;;;6.10;99.90;;;;;;5025277;28;20060;-73
2021/04/18 00:53:07;;;;;;;16.23;6.10;;;6.10;99.90;;;;;;5015714;28;20500;-73
2021/04/18 00:55:36;;;;;;;14.27;6.65;;;6.10;99.90;;;;;;5023177;28;20068;-73
2021/04/18 00:58:02;;;;;;;11.38;6.03;;;6.10;99.90;;;;;;5018750;28;20030;-73
2021/04/18 01:00:28;;;;;;;14.85;6.70;;;6.10;99.90;;;;;;5025885;28;20029;-73
2021/04/18 01:02:54;;;;;;;10.32;6.25;;;6.10;99.90;;;;;;5016301;28;20652;-73
2021/04/18 01:05:20;;;;;;;12.85;6.47;;;6.10;99.90;;;;;;5026708;28;20079;-73
2021/04/18 01:07:48;;;;;;;13.50;6.07;;;6.10;99.90;;;;;;5025242;28;20429;-73
2021/04/18 01:10:16;;;;;;;12.73;6.10;;;6.10;99.90;;;;;;5026920;28;20036;-73
2021/04/18 01:12:42;;;;;;;11.70;6.80;;;6.10;99.90;;;;;;5024531;28;20052;-73
2021/04/18 01:15:09;;;;;;;14.85;6.55;;;6.10;99.90;;;;;;5025061;28;20064;-73
2021/04/18 01:17:35;;;;;;;9.13;6.07;;;6.10;99.90;;;;;;5024754;28;20723;-72
2021/04/18 01:20:00;;;;;;;12.10;6.78;;;6.10;99.90;;;;;;5027603;28;20041;-73
2021/04/18 01:22:26;;;;;;;12.48;6.28;;;6.10;99.90;;;;;;5026089;28;20167;-73
2021/04/18 01:24:53;;;;;;;12.05;6.70;;;6.20;99.90;;;;;;5025703;28;20029;-73
2021/04/18 01:27:23;;;;;;;14.65;6.93;;;6.20;99.90;;;;;;5025724;28;20392;-73
2021/04/18 01:29:49;;;;;;;12.85;6.53;;;6.30;99.90;;;;;;5021318;28;20035;-72
2021/04/18 01:32:18;;;;;;;12.90;6.70;;;6.30;99.90;;;;;;5019638;28;20217;-72
2021/04/18 01:34:45;;;;;;;15.45;7.07;;;6.30;99.90;;;;;;5010817;28;20094;-73
2021/04/18 01:37:17;;;;;;;15.98;7.55;;;6.30;99.90;;;;;;5026280;28;20036;-72
2021/04/18 01:39:43;;;;;;;16.23;6.47;;;6.30;99.90;;;;;;5016298;28;20034;-73
2021/04/18 01:42:08;;;;;;;11.70;5.85;;;6.30;99.90;;;;;;5023029;28;20481;-73
2021/04/18 01:44:34;;;;;;;10.80;6.40;;;6.30;99.90;;;;;;5024038;28;20087;-73
2021/04/18 01:47:00;;;;;;;11.70;7.00;;;6.20;99.90;;;;;;5022094;28;20030;-73
2021/04/18 01:49:26;;;;;;;14.18;7.32;;;6.30;99.90;;;;;;5027479;28;20511;-73
2021/04/18 01:51:52;;;;;;;16.70;7.72;;;6.40;99.90;;;;;;5026965;28;20029;-73
2021/04/18 01:54:18;;;;;;;16.77;7.78;;;6.40;99.90;;;;;;5026534;28;20478;-73
2021/04/18 01:56:44;;;;;;;16.95;8.95;;;6.40;99.90;;;;;;5023898;28;20061;-73
2021/04/18 01:59:10;;;;;;;18.55;8.93;;;6.50;99.90;;;;;;5025391;28;20033;-73
2021/04/18 02:01:39;;;;;;;17.08;8.60;;;6.50;99.90;;;;;;5029185;28;20020;-73
2021/04/18 02:04:23;;;;;;;17.65;9.20;;;6.50;99.90;;;;;;5021736;28;20048;-73
2021/04/18 02:06:49;;;;;;;19.58;9.20;;;6.50;99.90;;;;;;5030683;28;20044;-73
2021/04/18 02:09:14;;;;;;;18.33;8.98;;;6.50;99.90;;;;;;5030512;28;20052;-73
2021/04/18 02:11:41;;;;;;;17.02;9.70;;;6.50;99.90;;;;;;5024538;28;20022;-73
2021/04/18 02:14:11;;;;;;;18.70;9.30;;;6.60;99.90;;;;;;5031020;28;20040;-73
2021/04/18 02:16:37;;;;;;;17.77;10.25;;;6.60;99.90;;;;;;5022097;28;20113;-73
2021/04/18 02:19:03;;;;;;;19.05;10.05;;;6.50;99.90;;;;;;5020390;28;20436;-73
2021/04/18 02:21:28;;;;;;;18.45;10.73;;;6.50;99.90;;;;;;5027714;28;20026;-73
2021/04/18 02:23:54;;;;;;;22.08;10.32;;;6.50;99.90;;;;;;5028620;28;20032;-73
2021/04/18 02:26:20;;;;;;;21.55;10.48;;;6.60;99.90;;;;;;5027167;28;20032;-72
2021/04/18 02:28:45;;;;;;;20.15;10.70;;;6.60;99.90;;;;;;5027178;28;20032;-73
2021/04/18 02:31:11;;;;;;;27.02;11.57;;;6.60;99.90;;;;;;5027255;28;20112;-72
2021/04/18 02:33:37;;;;;;;30.30;12.60;;;6.60;99.90;;;;;;5022025;28;20030;-72
2021/04/18 02:36:04;;;;;;;30.70;11.93;;;6.50;99.90;;;;;;5030133;28;20087;-73
2021/04/18 02:38:29;;;;;;;22.17;12.35;;;6.60;99.90;;;;;;5024678;28;20026;-73
2021/04/18 02:40:55;;;;;;;32.08;13.18;;;6.60;99.90;;;;;;5026962;28;20041;-73
2021/04/18 02:43:20;;;;;;;29.80;13.68;;;6.60;99.90;;;;;;5024543;28;20025;-73
2021/04/18 02:45:46;;;;;;;26.45;12.68;;;6.60;99.90;;;;;;5022403;28;20026;-73
2021/04/18 02:48:12;;;;;;;30.08;15.02;;;6.60;99.90;;;;;;5005453;28;20022;-73
2021/04/18 02:50:37;;;;;;;32.47;14.27;;;6.60;99.90;;;;;;5028859;28;20022;-73
2021/04/18 02:53:02;;;;;;;31.63;14.50;;;6.60;99.90;;;;;;5026584;28;20106;-73
2021/04/18 02:55:28;;;;;;;33.78;14.75;;;6.60;99.90;;;;;;4999307;28;20033;-73
2021/04/18 02:57:53;;;;;;;37.58;15.55;;;6.60;99.90;;;;;;5016430;28;20033;-73
2021/04/18 03:00:19;;;;;;;34.83;15.82;;;6.60;99.90;;;;;;5027847;28;20022;-73
2021/04/18 03:02:45;;;;;;;29.77;14.63;;;6.60;99.90;;;;;;5016836;28;20436;-73
2021/04/18 03:05:11;;;;;;;32.30;15.38;;;6.60;99.90;;;;;;5025262;28;20025;-73
2021/04/18 03:07:36;;;;;;;33.20;15.10;;;6.60;99.90;;;;;;5027942;28;20030;-72
2021/04/18 03:10:02;;;;;;;31.27;15.43;;;6.60;99.90;;;;;;5024455;28;20036;-72
2021/04/18 03:12:28;;;;;;;37.70;15.88;;;6.60;99.90;;;;;;5023499;28;20036;-73
2021/04/18 03:14:53;;;;;;;33.47;16.02;;;6.60;99.90;;;;;;5004729;28;20030;-73
2021/04/18 03:17:19;;;;;;;33.95;16.35;;;6.60;99.90;;;;;;5022030;28;20036;-73
2021/04/18 03:19:44;;;;;;;30.73;16.23;;;6.60;99.90;;;;;;5017907;28;20127;-73
2021/04/18 03:22:10;;;;;;;33.67;15.02;;;6.50;99.90;;;;;;5026432;28;20488;-73
2021/04/18 03:24:38;;;;;;;35.38;16.90;;;6.50;99.90;;;;;;5020601;28;20146;-72
2021/04/18 03:27:04;;;;;;;35.10;16.90;;;6.60;99.90;;;;;;5024361;28;20033;-73
2021/04/18 03:29:30;;;;;;;36.72;16.63;;;6.50;99.90;;;;;;5017201;28;20476;-73
2021/04/18 03:31:55;;;;;;;37.65;16.30;;;6.50;99.90;;;;;;5028046;28;20087;-73
2021/04/18 03:34:20;;;;;;;35.13;16.52;;;6.60;99.90;;;;;;5028983;28;20036;-73
2021/04/18 03:36:46;;;;;;;37.60;16.52;;;6.50;99.90;;;;;;5035752;28;20112;-73
2021/04/18 03:39:12;;;;;;;37.92;16.75;;;6.50;99.90;;;;;;5030406;28;20021;-72
2021/04/18 03:41:37;;;;;;;33.80;16.63;;;6.50;99.90;;;;;;5025590;28;20029;-73
2021/04/18 03:44:03;;;;;;;40.70;16.85;;;6.50;99.90;;;;;;5016714;28;20407;-73
2021/04/18 03:46:28;;;;;;;35.05;16.40;;;6.40;99.90;;;;;;5027048;28;20033;-73
2021/04/18 03:48:54;;;;;;;40.10;16.80;;;6.40;99.90;;;;;;5018166;28;20041;-73
2021/04/18 03:51:19;;;;;;;67.32;18.02;;;6.40;99.90;;;;;;5026331;28;20025;-73
2021/04/18 03:53:45;;;;;;;47.60;17.00;;;6.40;99.90;;;;;;5028914;28;20515;-73
2021/04/18 03:56:10;;;;;;;37.97;16.67;;;6.50;99.90;;;;;;5026352;28;20049;-73
2021/04/18 03:58:36;;;;;;;43.67;16.38;;;6.50;99.90;;;;;;5027277;28;20480;-73
2021/04/18 04:01:02;;;;;;;35.75;16.90;;;6.40;99.90;;;;;;5016472;28;20362;-72
2021/04/18 04:03:28;;;;;;;37.42;16.90;;;6.40;99.90;;;;;;5023298;28;20477;-73
2021/04/18 04:05:53;;;;;;;32.55;16.27;;;6.50;99.90;;;;;;5008922;28;20544;-73
2021/04/18 04:08:19;;;;;;;38.78;16.85;;;6.50;99.90;;;;;;5025102;28;20129;-73
2021/04/18 04:10:44;;;;;;;40.75;16.50;;;6.40;99.90;;;;;;5028326;28;20025;-73
2021/04/18 04:13:10;;;;;;;31.95;15.88;;;6.50;99.90;;;;;;5023375;28;20080;-73
2021/04/18 04:15:35;;;;;;;37.00;16.88;;;6.50;99.90;;;;;;5015369;28;20057;-73
2021/04/18 04:18:01;;;;;;;37.85;17.92;;;6.50;99.90;;;;;;5022169;28;20041;-73
2021/04/18 04:20:26;;;;;;;35.25;16.90;;;6.50;99.90;;;;;;5029189;28;20507;-73
2021/04/18 04:22:52;;;;;;;35.53;16.83;;;6.50;99.90;;;;;;5022047;28;20029;-73
2021/04/18 04:25:17;;;;;;;41.45;16.40;;;6.50;99.90;;;;;;5028157;28;20384;-73
2021/04/18 04:27:43;;;;;;;48.45;17.90;;;6.50;99.90;;;;;;5021468;28;20033;-72
2021/04/18 04:30:09;;;;;;;44.95;17.10;;;6.50;99.90;;;;;;5022184;28;20164;-73
2021/04/18 04:32:34;;;;;;;38.70;17.88;;;6.50;99.90;;;;;;5017539;28;20041;-73
2021/04/18 04:35:00;;;;;;;42.80;17.17;;;6.50;99.90;;;;;;5024354;28;20029;-73
2021/04/18 04:37:25;;;;;;;35.33;17.48;;;6.50;99.90;;;;;;5029830;28;20042;-73
2021/04/18 04:39:51;;;;;;;41.53;18.20;;;6.60;99.90;;;;;;5015805;28;20107;-73
2021/04/18 04:42:16;;;;;;;41.05;17.80;;;6.60;99.90;;;;;;5020318;28;20045;-72
2021/04/18 04:44:41;;;;;;;37.20;18.05;;;6.60;99.90;;;;;;5025914;28;20022;-73
2021/04/18 04:47:07;;;;;;;41.95;18.13;;;6.60;99.90;;;;;;5028120;28;20379;-74
2021/04/18 04:49:32;;;;;;;45.15;18.05;;;6.60;99.90;;;;;;5026962;28;20098;-73
2021/04/18 04:51:58;;;;;;;44.35;17.80;;;6.60;99.90;;;;;;5027406;28;20049;-72
2021/04/18 04:54:23;;;;;;;37.42;17.73;;;6.60;99.90;;;;;;5005305;28;20061;-73
2021/04/18 04:56:49;;;;;;;41.13;18.02;;;6.60;99.90;;;;;;5006042;28;20044;-73
2021/04/18 04:59:15;;;;;;;40.50;17.80;;;6.60;99.90;;;;;;5000271;28;20037;-73
2021/04/18 05:01:41;;;;;;;41.75;18.38;;;6.70;99.90;;;;;;5004921;28;20026;-73
2021/04/18 05:04:06;;;;;;;41.08;16.58;;;6.70;99.90;;;;;;5007297;28;20045;-73
2021/04/18 05:06:32;;;;;;;38.55;17.50;;;6.60;99.90;;;;;;5007277;28;20086;-73
2021/04/18 05:08:57;;;;;;;45.72;19.05;;;6.70;99.90;;;;;;5006405;28;20392;-73
2021/04/18 05:11:23;;;;;;;48.75;19.02;;;6.60;99.90;;;;;;5006593;28;20030;-73
2021/04/18 05:13:48;;;;;;;41.25;17.38;;;6.70;99.90;;;;;;4995437;28;20560;-73
2021/04/18 05:16:14;;;;;;;40.85;17.63;;;6.60;99.90;;;;;;5001268;28;20049;-73
2021/04/18 05:18:39;;;;;;;50.05;18.50;;;6.60;99.90;;;;;;5008017;28;20065;-73
2021/04/18 05:21:05;;;;;;;47.53;19.08;;;6.70;99.90;;;;;;5006911;28;20472;-73
2021/04/18 05:23:30;;;;;;;44.55;18.33;;;6.70;99.90;;;;;;5001312;28;20048;-73
2021/04/18 05:25:56;;;;;;;42.03;19.00;;;6.70;99.90;;;;;;5005310;28;20046;-72
2021/04/18 05:28:21;;;;;;;38.10;18.80;;;6.70;99.90;;;;;;5006467;28;20032;-73
2021/04/18 05:30:47;;;;;;;46.95;17.30;;;6.70;99.90;;;;;;5006605;28;20034;-73
2021/04/18 05:33:12;;;;;;;41.85;17.85;;;6.70;99.90;;;;;;5000845;28;20057;-73
2021/04/18 05:35:38;;;;;;;41.58;17.75;;;6.70;99.90;;;;;;5009427;28;20034;-73
2021/04/18 05:38:03;;;;;;;44.70;18.15;;;6.70;99.90;;;;;;5006013;28;20030;-73
2021/04/18 05:40:29;;;;;;;50.70;19.80;;;6.80;99.90;;;;;;4998491;28;20034;-72
2021/04/18 05:42:54;;;;;;;49.05;19.30;;;6.80;99.90;;;;;;5002701;28;20836;-73
2021/04/18 05:45:20;;;;;;;44.00;18.10;;;6.80;99.90;;;;;;5009009;28;20029;-73
2021/04/18 05:47:46;;;;;;;41.63;19.17;;;6.80;99.90;;;;;;5008123;28;20113;-77
2021/04/18 05:50:12;;;;;;;43.53;19.10;;;6.80;99.90;;;;;;5009701;28;20034;-72
2021/04/18 05:52:38;;;;;;;49.75;19.00;;;6.80;99.90;;;;;;5004729;28;20040;-73
2021/04/18 05:55:08;;;;;;;39.95;18.02;;;6.80;99.90;;;;;;5024852;28;20593;-73
2021/04/18 05:57:36;;;;;;;39.60;17.73;;;6.80;99.90;;;;;;5030538;28;20071;-73
2021/04/18 06:00:06;;;;;;;51.40;19.35;;;6.80;99.90;;;;;;5025049;28;20037;-73
2021/04/18 06:02:31;;;;;;;37.75;17.63;;;6.80;99.90;;;;;;5025535;28;20115;-73
2021/04/18 06:04:57;;;;;;;49.70;19.45;;;6.80;99.90;;;;;;5029574;28;20090;-73
2021/04/18 06:07:22;;;;;;;46.22;20.60;;;6.80;99.90;;;;;;5024244;28;20030;-73
2021/04/18 06:09:48;;;;;;;40.35;18.65;;;6.80;99.90;;;;;;5019128;28;20058;-72
2021/04/18 06:12:15;;;;;;;44.55;20.35;;;6.90;99.90;;;;;;5022783;28;20079;-73
2021/04/18 06:14:44;;;;;;;40.13;18.73;;;6.90;99.90;;;;;;5023490;28;20041;-73
2021/04/18 06:17:09;;;;;;;37.13;17.88;;;6.80;99.90;;;;;;5017694;28;20066;-73
2021/04/18 06:19:35;;;;;;;43.40;18.48;;;6.80;99.90;;;;;;5025046;28;20057;-73
2021/04/18 06:22:00;;;;;;;40.78;18.17;;;6.90;99.90;;;;;;5024403;28;20473;-73
2021/04/18 06:24:26;;;;;;;38.15;18.42;;;6.90;99.90;;;;;;5029085;28;20080;-73
2021/04/18 06:26:51;;;;;;;39.53;18.35;;;6.90;99.90;;;;;;5024861;28;20030;-73
2021/04/18 06:29:17;;;;;;;34.50;17.10;;;6.90;99.90;;;;;;5023458;28;20543;-73
2021/04/18 06:31:43;;;;;;;38.00;17.27;;;6.90;99.90;;;;;;5025951;28;20098;-73
2021/04/18 06:34:09;;;;;;;32.88;16.75;;;6.90;99.90;;;;;;5026377;28;20037;-73
2021/04/18 06:36:35;;;;;;;34.45;16.80;;;6.90;99.90;;;;;;5029603;28;20060;-74
2021/04/18 06:39:00;;;;;;;40.75;18.10;;;6.90;99.90;;;;;;5021849;28;20037;-73
2021/04/18 06:41:26;;;;;;;45.80;18.20;;;6.90;99.90;;;;;;5027386;28;20495;-74
2021/04/18 06:43:52;;;;;;;37.63;17.00;;;6.90;99.90;;;;;;5021482;28;20036;-72
2021/04/18 06:46:20;;;;;;;39.72;17.80;;;7.00;99.90;;;;;;5020480;28;20022;-72
2021/04/18 06:48:46;;;;;;;34.80;17.27;;;7.00;99.90;;;;;;5026566;28;20032;-72
2021/04/18 06:51:12;;;;;;;38.72;17.88;;;7.00;99.90;;;;;;5028720;28;20037;-72
2021/04/18 06:53:38;;;;;;;36.95;17.60;;;7.10;99.90;;;;;;5018734;28;20068;-72
2021/04/18 06:56:07;;;;;;;38.97;17.65;;;7.00;99.90;;;;;;5023772;28;20083;-72
2021/04/18 06:58:35;;;;;;;39.25;17.75;;;7.10;99.90;;;;;;5018117;28;20053;-73
2021/04/18 07:01:02;;;;;;;42.75;18.20;;;7.00;99.90;;;;;;5027763;28;20122;-73
2021/04/18 07:03:27;;;;;;;41.17;18.90;;;7.00;99.90;;;;;;5022954;28;20397;-72
2021/04/18 07:05:56;;;;;;;34.58;17.15;;;7.00;99.90;;;;;;5024851;28;20029;-72
2021/04/18 07:08:23;;;;;;;35.22;17.73;;;7.00;99.90;;;;;;5007829;28;20100;-72
2021/04/18 07:10:52;;;;;;;43.45;18.13;;;7.00;99.90;;;;;;5026363;28;20087;-71
2021/04/18 07:13:19;;;;;;;38.85;17.10;;;7.00;99.90;;;;;;5025928;28;20044;-73
2021/04/18 07:15:47;;;;;;;36.45;18.40;;;6.90;99.90;;;;;;5024835;28;20341;-72
2021/04/18 07:18:33;;;;;;;37.65;17.60;;;6.90;99.90;;;;;;5025807;28;20064;-72
2021/04/18 07:20:59;;;;;;;33.03;16.00;;;7.00;99.90;;;;;;5025754;28;20025;-72
2021/04/18 07:23:30;;;;;;;32.95;16.55;;;7.00;99.90;;;;;;5024532;28;20727;-72
2021/04/18 07:25:57;;;;;;;30.83;15.88;;;7.10;99.90;;;;;;5024918;28;20033;-72
2021/04/18 07:28:25;;;;;;;32.25;16.15;;;7.10;99.90;;;;;;5026552;28;20029;-72
2021/04/18 07:30:55;;;;;;;34.92;15.90;;;7.10;99.90;;;;;;5022732;28;20041;-72
2021/04/18 07:33:21;;;;;;;37.15;16.20;;;7.20;99.90;;;;;;5025546;28;20029;-72
2021/04/18 07:35:46;;;;;;;29.13;15.00;;;7.30;99.90;;;;;;5028219;28;20025;-73
2021/04/18 07:38:24;;;;;;;24.63;13.30;;;7.30;99.90;;;;;;5027481;28;20048;-73
2021/04/18 07:40:55;;;;;;;27.33;13.98;;;7.30;99.90;;;;;;5025373;28;20518;-73
2021/04/18 07:43:21;;;;;;;34.05;14.38;;;7.30;99.90;;;;;;5026523;28;20025;-74
2021/04/18 07:45:49;;;;;;;28.52;14.20;;;7.20;99.90;;;;;;5026389;28;20051;-73
2021/04/18 07:48:16;;;;;;;28.02;13.57;;;7.20;99.90;;;;;;5026973;28;20267;-73
2021/04/18 07:50:46;;;;;;;21.35;12.05;;;7.20;99.90;;;;;;5025027;28;20553;-73
2021/04/18 07:53:18;;;;;;;24.52;13.05;;;7.20;99.90;;;;;;5024733;28;20052;-74
2021/04/18 07:55:44;;;;;;;23.95;12.88;;;7.20;99.90;;;;;;5025974;28;20056;-73
2021/04/18 07:58:11;;;;;;;24.08;12.13;;;7.20;99.90;;;;;;5025642;28;20040;-73
2021/04/18 08:00:37;;;;;;;23.70;11.88;;;7.20;99.90;;;;;;5025292;28;20037;-74
2021/04/18 08:03:04;;;;;;;19.80;12.18;;;7.20;99.90;;;;;;5023368;28;20407;-73
2021/04/18 08:05:32;;;;;;;22.60;11.55;;;7.20;99.90;;;;;;5023734;28;20504;-73
2021/04/18 08:08:14;;;;;;;20.30;11.23;;;7.20;99.90;;;;;;5023944;28;20034;-74
2021/04/18 08:10:52;;;;;;;22.63;11.38;;;7.20;99.90;;;;;;5023211;28;20041;-74
2021/04/18 08:13:23;;;;;;;20.00;11.48;;;7.20;99.90;;;;;;5026453;28;20025;-74
2021/04/18 08:15:51;;;;;;;21.10;10.05;;;7.20;99.90;;;;;;5023149;28;20371;-74
2021/04/18 08:18:17;;;;;;;20.05;10.18;;;7.20;99.90;;;;;;5022713;28;20435;-73
2021/04/18 08:20:45;;;;;;;19.10;10.20;;;7.10;99.90;;;;;;5020171;28;20037;-74
2021/04/18 08:23:17;;;;;;;16.83;9.68;;;7.10;99.90;;;;;;5023143;28;20370;-74
2021/04/18 08:26:04;;;;;;;18.38;10.55;;;7.10;99.90;;;;;;5022220;28;20436;-72
2021/04/18 08:28:49;;;;;;;18.10;10.63;;;7.20;99.90;;;;;;5021452;28;20064;-74
2021/04/18 08:31:14;;;;;;;20.15;10.32;;;7.20;99.90;;;;;;5024133;28;20026;-74
2021/04/18 08:33:40;;;;;;;20.27;10.68;;;7.20;99.90;;;;;;5022036;28;20083;-73
2021/04/18 08:36:19;;;;;;;16.80;8.93;;;7.20;99.90;;;;;;5007879;28;20025;-74
2021/04/18 08:39:09;;;;;;;17.33;10.10;;;7.40;99.90;;;;;;5009120;28;20025;-75
2021/04/18 08:41:50;;;;;;;15.50;8.82;;;7.50;99.90;;;;;;5025473;28;20120;-72
2021/04/18 08:44:27;;;;;;;14.73;8.82;;;7.60;99.90;;;;;;5022954;28;20045;-72
2021/04/18 08:46:57;;;;;;;13.25;8.23;;;7.80;99.90;;;;;;5023635;28;20057;-73
2021/04/18 08:49:30;;;;;;;14.38;8.60;;;7.80;99.90;;;;;;5025408;28;20236;-71
2021/04/18 08:51:56;;;;;;;16.05;9.13;;;7.90;99.90;;;;;;5021408;28;20061;-72
2021/04/18 08:54:24;;;;;;;15.32;8.77;;;7.90;99.90;;;;;;5020319;28;20135;-73
2021/04/18 08:56:55;;;;;;;15.95;9.85;;;8.00;99.90;;;;;;5022783;28;20109;-72
2021/04/18 08:59:21;;;;;;;14.50;8.57;;;8.00;99.90;;;;;;5022161;28;20064;-72
2021/04/18 09:01:58;;;;;;;13.30;8.35;;;8.00;99.90;;;;;;5022456;28;20148;-71
2021/04/18 09:04:24;;;;;;;13.48;8.45;;;8.00;99.90;;;;;;5024577;28;20033;-73
2021/04/18 09:06:50;;;;;;;14.52;8.60;;;7.90;99.90;;;;;;5022596;28;20223;-72
2021/04/18 09:09:16;;;;;;;13.00;7.88;;;7.80;99.90;;;;;;5024618;28;20480;-72
2021/04/18 09:11:46;;;;;;;15.18;8.50;;;7.70;99.90;;;;;;5029434;28;20029;-72
2021/04/18 09:14:15;;;;;;;15.10;8.40;;;7.60;99.90;;;;;;5022869;28;20065;-72
2021/04/18 09:16:44;;;;;;;13.65;8.15;;;7.60;99.90;;;;;;5027403;28;20056;-73
2021/04/18 09:19:21;;;;;;;10.75;7.75;;;7.70;99.90;;;;;;5029676;28;20037;-73
2021/04/18 09:21:53;;;;;;;13.57;7.93;;;7.60;99.90;;;;;;5024336;28;20057;-72
2021/04/18 09:24:19;;;;;;;14.32;8.43;;;7.60;99.90;;;;;;5019644;28;20039;-72
2021/04/18 09:27:06;;;;;;;14.40;8.13;;;7.60;99.90;;;;;;5021305;28;20427;-75
2021/04/18 09:29:43;;;;;;;13.10;8.88;;;7.70;99.90;;;;;;5019086;28;20032;-76
2021/04/18 09:32:12;;;;;;;14.00;8.38;;;7.60;99.90;;;;;;5023106;28;20445;-75
2021/04/18 09:34:41;;;;;;;13.80;8.68;;;7.60;99.90;;;;;;5021856;28;20104;-70
2021/04/18 09:37:11;;;;;;;13.10;8.48;;;7.70;99.90;;;;;;5024219;28;20038;-74
2021/04/18 09:39:37;;;;;;;10.80;7.00;;;7.70;99.90;;;;;;5021163;28;20029;-70
2021/04/18 09:42:05;;;;;;;14.02;7.95;;;7.70;99.90;;;;;;5025314;28;20029;-71
2021/04/18 09:44:34;;;;;;;13.43;7.85;;;7.80;99.90;;;;;;5023487;28;20438;-70
2021/04/18 09:47:02;;;;;;;13.50;7.55;;;7.90;99.90;;;;;;5003198;28;20104;-72
2021/04/18 09:49:42;;;;;;;12.70;7.05;;;8.00;99.90;;;;;;5020989;28;20500;-70
2021/04/18 09:52:08;;;;;;;15.18;7.28;;;8.30;99.90;;;;;;5018340;28;20037;-72
2021/04/18 09:54:37;;;;;;;11.55;6.97;;;8.50;99.90;;;;;;5020824;28;20095;-71
2021/04/18 09:57:16;;;;;;;11.02;7.10;;;8.60;99.90;;;;;;5023304;28;20033;-71
2021/04/18 09:59:42;;;;;;;11.55;7.45;;;8.70;99.90;;;;;;5018618;28;20076;-72
2021/04/18 10:02:16;;;;;;;11.40;7.22;;;8.70;99.90;;;;;;5022228;28;20029;-72
2021/04/18 10:04:43;;;;;;;12.82;7.38;;;8.80;99.90;;;;;;4997715;28;20181;-71
2021/04/18 10:07:25;;;;;;;10.55;7.35;;;9.00;99.90;;;;;;5023216;28;20029;-71
2021/04/18 10:09:52;;;;;;;10.23;6.93;;;9.10;99.90;;;;;;5021698;28;20033;-72
2021/04/18 10:12:18;;;;;;;11.23;7.07;;;9.10;99.90;;;;;;5020670;28;20033;-72
2021/04/18 10:14:45;;;;;;;12.05;7.22;;;9.10;99.90;;;;;;5016054;28;20029;-71
2021/04/18 10:17:11;;;;;;;13.30;7.60;;;9.20;99.90;;;;;;5013052;28;20790;-72
2021/04/18 10:19:50;;;;;;;11.32;7.82;;;9.40;99.90;;;;;;5023895;28;20030;-71
2021/04/18 10:22:16;;;;;;;10.77;7.18;;;9.40;99.90;;;;;;5018981;28;20104;-72
2021/04/18 10:24:50;;;;;;;10.68;7.75;;;9.50;99.90;;;;;;5020559;28;20548;-72
2021/04/18 10:27:29;;;;;;;12.55;8.07;;;9.60;99.90;;;;;;5015218;28;20374;-72
2021/04/18 10:29:54;;;;;;;9.70;7.30;;;9.70;99.90;;;;;;5024511;28;20075;-72
2021/04/18 10:32:22;;;;;;;12.25;8.48;;;9.90;99.90;;;;;;5020181;28;20017;-73
2021/04/18 10:34:52;;;;;;;10.77;7.53;;;10.00;99.90;;;;;;5016754;28;20026;-72
2021/04/18 10:37:19;;;;;;;12.48;8.60;;;10.20;99.90;;;;;;5023371;28;20060;-72
2021/04/18 10:39:45;;;;;;;10.73;7.78;;;10.60;99.90;;;;;;5021207;28;20029;-73
2021/04/18 10:42:11;;;;;;;10.32;7.40;;;11.10;99.90;;;;;;5020393;28;20960;-72
2021/04/18 10:44:37;;;;;;;13.07;8.30;;;11.40;99.90;;;;;;5014803;28;20404;-72
2021/04/18 10:47:05;;;;;;;10.90;7.78;;;11.70;99.90;;;;;;5023152;28;20029;-72
2021/04/18 10:49:31;;;;;;;9.82;6.95;;;11.90;99.90;;;;;;5020077;28;20497;-72
2021/04/18 10:51:57;;;;;;;10.93;7.30;;;12.10;99.90;;;;;;5021423;28;20030;-72
2021/04/18 10:54:23;;;;;;;11.55;7.30;;;12.60;99.90;;;;;;5017252;28;20068;-72
2021/04/18 10:56:51;;;;;;;10.00;7.35;;;12.50;99.90;;;;;;5021056;28;20037;-73
2021/04/18 10:59:17;;;;;;;11.88;7.80;;;12.30;99.90;;;;;;5019282;28;20048;-72
2021/04/18 11:01:43;;;;;;;10.15;7.35;;;12.10;99.90;;;;;;5017001;28;20032;-73
2021/04/18 11:04:09;;;;;;;10.18;7.75;;;12.10;99.90;;;;;;5019990;28;20033;-72
2021/04/18 11:06:35;;;;;;;10.27;7.50;;;12.20;99.90;;;;;;5016709;28;20025;-72
2021/04/18 11:09:01;;;;;;;10.57;7.68;;;12.30;99.90;;;;;;5023010;28;20234;-72
2021/04/18 11:11:26;;;;;;;13.52;7.75;;;12.40;99.90;;;;;;5020921;28;20033;-71
2021/04/18 11:13:52;;;;;;;10.85;7.65;;;12.60;99.90;;;;;;5022332;28;20573;-73
2021/04/18 11:16:18;;;;;;;11.93;7.55;;;12.60;99.90;;;;;;5020880;28;20468;-72
2021/04/18 11:18:45;;;;;;;11.00;7.60;;;12.40;99.90;;;;;;5020496;28;20045;-73
2021/04/18 11:21:10;;;;;;;11.15;7.55;;;12.30;99.90;;;;;;5015429;28;20399;-73
2021/04/18 11:23:36;;;;;;;10.30;7.80;;;12.10;99.90;;;;;;5017587;28;20025;-72
2021/04/18 11:26:03;;;;;;;12.70;8.45;;;12.00;99.90;;;;;;5012826;28;20761;-74
2021/04/18 11:28:28;;;;;;;10.70;8.13;;;11.90;99.90;;;;;;5022219;28;20030;-74
2021/04/18 11:30:54;;;;;;;11.32;7.30;;;12.10;99.90;;;;;;5019831;28;20176;-74
2021/04/18 11:33:19;;;;;;;12.65;8.07;;;12.00;99.90;;;;;;5018840;28;20045;-73
2021/04/18 11:35:45;;;;;;;10.02;7.75;;;11.80;99.90;;;;;;5021704;28;20625;-73
2021/04/18 11:38:10;;;;;;;11.50;7.55;;;11.70;99.90;;;;;;5019730;28;20028;-73
2021/04/18 11:40:36;;;;;;;11.48;7.90;;;11.80;99.90;;;;;;5027385;28;20033;-72
2021/04/18 11:43:03;;;;;;;12.23;8.13;;;11.80;99.90;;;;;;5021046;28;20026;-76
2021/04/18 11:45:29;;;;;;;11.18;8.30;;;11.80;99.90;;;;;;5016902;28;20072;-73
2021/04/18 11:47:54;;;;;;;11.30;8.10;;;11.70;99.90;;;;;;5018380;28;20021;-74
2021/04/18 11:50:21;;;;;;;11.80;8.55;;;11.60;99.90;;;;;;5013511;28;20484;-75
2021/04/18 11:52:47;;;;;;;13.88;9.00;;;11.60;99.90;;;;;;5015061;28;20328;-73
2021/04/18 11:55:13;;;;;;;13.13;9.10;;;11.70;99.90;;;;;;5018013;28;20522;-74
2021/04/18 11:57:39;;;;;;;15.48;8.82;;;11.90;99.90;;;;;;5014271;28;20540;-74
2021/04/18 12:00:07;;;;;;;12.80;8.77;;;12.10;99.90;;;;;;5010716;28;20035;-74
2021/04/18 12:02:33;;;;;;;12.68;8.80;;;12.30;99.90;;;;;;5013262;28;20026;-73
2021/04/18 12:04:59;;;;;;;11.70;8.02;;;12.40;99.90;;;;;;5019517;28;20442;-74
2021/04/18 12:07:24;;;;;;;13.10;7.70;;;12.40;99.90;;;;;;5014840;28;20099;-73
2021/04/18 12:09:50;;;;;;;15.20;9.73;;;12.40;99.90;;;;;;5016431;28;20499;-74
2021/04/18 12:12:16;;;;;;;12.90;8.52;;;12.30;99.90;;;;;;5016668;28;20116;-73
2021/04/18 12:14:41;;;;;;;12.68;8.60;;;12.30;99.90;;;;;;5013979;28;20048;-73
2021/04/18 12:17:07;;;;;;;13.30;8.45;;;12.60;99.90;;;;;;5016915;28;20029;-73
2021/04/18 12:19:32;;;;;;;11.43;7.88;;;12.70;99.90;;;;;;5012542;28;20029;-73
2021/04/18 12:21:58;;;;;;;10.90;7.80;;;12.90;99.90;;;;;;5019305;28;20385;-73
2021/04/18 12:24:23;;;;;;;13.15;7.20;;;13.60;99.90;;;;;;5013425;28;20030;-73
2021/04/18 12:26:49;;;;;;;11.50;7.70;;;14.90;99.90;;;;;;5018039;28;20025;-73
2021/04/18 12:29:15;;;;;;;9.55;6.47;;;15.20;99.90;;;;;;5016811;28;20388;-73
2021/04/18 12:31:41;;;;;;;11.40;7.78;;;15.00;99.90;;;;;;5015395;28;20033;-73
2021/04/18 12:34:09;;;;;;;10.05;7.00;;;14.40;99.90;;;;;;5015856;28;20056;-73
2021/04/18 12:36:36;;;;;;;10.27;6.75;;;14.10;99.90;;;;;;5017706;28;20059;-73
2021/04/18 12:39:06;;;;;;;9.27;6.78;;;14.20;99.90;;;;;;5018953;28;20719;-73
2021/04/18 12:41:32;;;;;;;10.43;6.97;;;14.20;99.90;;;;;;5012812;28;20033;-73